Legend — WDH2751 — position and weather

sailwx.info

Track history (hours):
 
Tides and Currents Weather Stations Pressure Air Temp Water Temp Dewpoint Dewpoint Depression Visibility Wind Speed Wind Dir Waves Ship Positions

Legend

Owner: Sea Adventure 80 Sportfishing, Encinitas, CA. More information available from US FCC via Universal Licensing System and Coast Guard Vessel Documentation Center.

Last reported at 2017-Sep-22 02:00 UTC. Time now 2017-Sep-22 20:46 UTC.
Position N 32°43' W 117°14'.

Type: Passenger vessel. MMSI: 367600830.

Date/timePositionNaut miles runAvg speedWind from/ knotsBaromVisibWave heightAir tempDewpointWater temp
2017-Sep-22 02:00N 32°43' W 117°14'0 0.0
2017-Sep-22 01:30N 32°43' W 117°14'0 0.0
2017-Sep-22 01:01N 32°43' W 117°14'0 0.0
2017-Sep-22 00:31N 32°43' W 117°14'0 0.0
2017-Sep-22 00:00N 32°43' W 117°14'0 0.0
2017-Sep-21 23:30N 32°43' W 117°14'0 0.0
2017-Sep-21 23:01N 32°43' W 117°14'0 0.0
2017-Sep-21 22:30N 32°43' W 117°14'0 0.0
2017-Sep-21 22:00N 32°43' W 117°14'0 0.0
2017-Sep-21 21:30N 32°43' W 117°14'0 0.0
2017-Sep-21 21:00N 32°43' W 117°14'0 0.0
2017-Sep-21 20:31N 32°43' W 117°14'0 0.0
2017-Sep-21 20:00N 32°43' W 117°14'0 0.0
2017-Sep-21 19:31N 32°43' W 117°14'0 0.0
2017-Sep-21 19:01N 32°43' W 117°14'0 0.0
2017-Sep-21 18:30N 32°43' W 117°14'0 0.0
2017-Sep-21 18:00N 32°43' W 117°14'0 0.0
2017-Sep-21 17:31N 32°43' W 117°14'0 0.0
2017-Sep-21 17:00N 32°43' W 117°14'0 0.0
2017-Sep-21 16:30N 32°43' W 117°14'0 0.0
2017-Sep-21 16:01N 32°43' W 117°14'0 0.0
2017-Sep-21 15:30N 32°43' W 117°14'0 0.0
2017-Sep-21 15:00N 32°43' W 117°14'0 0.0
2017-Sep-21 14:31N 32°43' W 117°14'0 0.0
2017-Sep-21 14:00N 32°43' W 117°14'0 0.0
2017-Sep-21 13:30N 32°43' W 117°14'2 3.4
2017-Sep-21 13:00N 32°42' W 117°14'3 5.3
2017-Sep-21 12:30N 32°39' W 117°15'3 6.4
2017-Sep-21 12:00N 32°40' W 117°19'3 6.6
2017-Sep-21 11:30N 32°40' W 117°23'3 6.6
2017-Sep-21 11:01N 32°41' W 117°27'3 6.2
2017-Sep-21 10:31N 32°41' W 117°30'3 6.4
2017-Sep-21 10:00N 32°41' W 117°34'3 6.4
2017-Sep-21 09:30N 32°41' W 117°38'3 6.8
2017-Sep-21 09:01N 32°41' W 117°42'3 6.9
2017-Sep-21 08:30N 32°41' W 117°46'3 6.9
2017-Sep-21 08:00N 32°41' W 117°50'3 6.6
2017-Sep-21 07:30N 32°41' W 117°54'3 6.5
2017-Sep-21 07:00N 32°41' W 117°58'3 6.5
2017-Sep-21 06:30N 32°41' W 118°02'3 6.5
2017-Sep-21 05:58N 32°42' W 118°06'3 6.4
2017-Sep-21 05:30N 32°42' W 118°09'3 6.5
2017-Sep-21 05:01N 32°43' W 118°13'8 6.9
2017-Sep-21 03:52N 32°43' W 118°23'2 6.5
2017-Sep-21 03:30N 32°45' W 118°25'6 6.9
2017-Sep-21 02:39N 32°48' W 118°31'7 0.6
2017-Sep-20 15:14N 32°52' W 118°24'1 2.2
2017-Sep-20 14:50N 32°53' W 118°25'17 1.8
2017-Sep-20 05:25N 32°42' W 118°09'4 7.5
2017-Sep-20 04:52N 32°39' W 118°06'9 7.5
2017-Sep-20 03:44N 32°33' W 117°58'3 7.4
2017-Sep-20 03:23N 32°32' W 117°56'3 7.4
2017-Sep-20 03:00N 32°30' W 117°53'5 7.4
2017-Sep-20 02:23N 32°27' W 117°49'3 7.4
2017-Sep-20 02:00N 32°25' W 117°46'4 7.1
2017-Sep-20 01:25N 32°22' W 117°43'3 6.6
2017-Sep-20 01:01N 32°20' W 117°41'26 1.3
2017-Sep-19 04:56N 32°36' W 117°16'4 8.9
2017-Sep-19 04:31N 32°39' W 117°14'3 5.6
2017-Sep-19 04:00N 32°42' W 117°14'0 0.0
2017-Sep-19 03:31N 32°42' W 117°14'2 3.4
2017-Sep-19 02:59N 32°43' W 117°14'0 0.1
2017-Sep-19 02:31N 32°43' W 117°14'0 0.0
2017-Sep-19 02:00N 32°43' W 117°14'0 0.0
2017-Sep-19 01:31N 32°43' W 117°14'0 0.0
2017-Sep-19 01:00N 32°43' W 117°14'0 0.0
2017-Sep-19 00:30N 32°43' W 117°14'0 0.0
2017-Sep-19 00:00N 32°43' W 117°14'0 0.0
2017-Sep-18 23:31N 32°43' W 117°14'0 0.0
2017-Sep-18 23:00N 32°43' W 117°14'0 0.0
2017-Sep-18 22:31N 32°43' W 117°14'0 0.0
2017-Sep-18 22:00N 32°43' W 117°14'0 0.0
2017-Sep-18 21:31N 32°43' W 117°14'0 0.0
2017-Sep-18 21:00N 32°43' W 117°14'0 0.0
2017-Sep-18 20:30N 32°43' W 117°14'0 0.0
2017-Sep-18 20:00N 32°43' W 117°14'0 0.0
2017-Sep-18 19:30N 32°43' W 117°14'0 0.0
2017-Sep-18 19:00N 32°43' W 117°14'0 0.0
2017-Sep-18 18:31N 32°43' W 117°14'0 0.0
2017-Sep-18 18:00N 32°43' W 117°14'0 0.0
2017-Sep-18 17:30N 32°43' W 117°14'0 0.0
2017-Sep-18 17:01N 32°43' W 117°14'0 0.0
2017-Sep-18 16:31N 32°43' W 117°14'0 0.0
2017-Sep-18 16:00N 32°43' W 117°14'0 0.0
2017-Sep-18 15:30N 32°43' W 117°14'0 0.0
2017-Sep-18 15:00N 32°43' W 117°14'0 0.2
2017-Sep-18 14:29N 32°43' W 117°14'0 0.3
2017-Sep-18 14:00N 32°43' W 117°14'0 0.0
2017-Sep-18 13:31N 32°43' W 117°14'0 0.5
2017-Sep-18 13:00N 32°43' W 117°13'0 0.8
2017-Sep-18 12:30N 32°43' W 117°13'0 0.0
2017-Sep-18 12:00N 32°43' W 117°13'0 0.0
2017-Sep-18 11:27N 32°43' W 117°13'0 0.0
2017-Sep-18 11:00N 32°43' W 117°13'2 4.7
2017-Sep-18 10:30N 32°41' W 117°14'4 7.1
2017-Sep-18 10:01N 32°38' W 117°14'4 7.2
2017-Sep-18 09:30N 32°34' W 117°15'3 6.8
2017-Sep-18 09:01N 32°31' W 117°17'6 6.6
2017-Sep-18 08:06N 32°25' W 117°19'10 1.0
2017-Sep-17 22:04N 32°23' W 117°31'2 8.9
2017-Sep-17 21:54N 32°24' W 117°31'3 8.9
2017-Sep-17 21:30N 32°28' W 117°32'3 5.2
2017-Sep-17 21:00N 32°30' W 117°34'1 1.2
2017-Sep-17 20:30N 32°29' W 117°34'2 4.1
2017-Sep-17 20:00N 32°27' W 117°33'4 7.4
2017-Sep-17 19:30N 32°25' W 117°30'4 7.4
2017-Sep-17 18:59N 32°21' W 117°30'1 2.7
2017-Sep-17 18:29N 32°21' W 117°31'2 4.8
2017-Sep-17 17:58N 32°23' W 117°30'3 7.1
2017-Sep-17 17:30N 32°26' W 117°30'4 7.8
2017-Sep-17 17:00N 32°30' W 117°30'3 5.1
2017-Sep-17 16:30N 32°31' W 117°32'1 1.1
2017-Sep-17 16:00N 32°32' W 117°32'0 0.5
2017-Sep-17 15:30N 32°32' W 117°33'0 0.6
2017-Sep-17 15:00N 32°32' W 117°33'2 3.3
2017-Sep-17 14:30N 32°33' W 117°33'3 5.7
2017-Sep-17 14:01N 32°36' W 117°34'0 0.3
2017-Sep-17 13:30N 32°36' W 117°34'1 1.5
2017-Sep-17 13:00N 32°37' W 117°33'0 0.7
2017-Sep-17 12:30N 32°37' W 117°34'0 0.8
2017-Sep-17 12:00N 32°37' W 117°34'0 0.8
2017-Sep-17 11:30N 32°36' W 117°35'0 0.8
2017-Sep-17 11:00N 32°36' W 117°35'0 0.8
2017-Sep-17 10:30N 32°36' W 117°36'0 0.7
2017-Sep-17 10:00N 32°36' W 117°36'0 0.7
2017-Sep-17 09:30N 32°36' W 117°36'0 0.7
2017-Sep-17 09:00N 32°36' W 117°37'0 0.6
2017-Sep-17 08:31N 32°36' W 117°37'1 1.6
2017-Sep-17 08:01N 32°36' W 117°36'4 7.5
2017-Sep-17 07:30N 32°37' W 117°32'4 7.7
2017-Sep-17 07:00N 32°38' W 117°28'4 7.9
2017-Sep-17 06:30N 32°38' W 117°23'4 7.1
2017-Sep-17 06:00N 32°38' W 117°19'4 7.0
2017-Sep-17 05:30N 32°38' W 117°15'3 6.7
2017-Sep-17 05:00N 32°42' W 117°14'0 0.0
2017-Sep-17 04:30N 32°42' W 117°14'2 3.6
2017-Sep-17 04:00N 32°43' W 117°13'0 0.6
2017-Sep-17 03:30N 32°43' W 117°14'0 0.0
2017-Sep-17 03:00N 32°43' W 117°14'0 0.0
2017-Sep-17 02:30N 32°43' W 117°14'0 0.2
2017-Sep-17 01:59N 32°43' W 117°14'0 0.3
2017-Sep-17 01:30N 32°43' W 117°14'0 0.0
2017-Sep-17 01:00N 32°43' W 117°14'3 5.2
2017-Sep-17 00:30N 32°41' W 117°14'3 6.8
2017-Sep-17 00:00N 32°38' W 117°16'3 6.5
2017-Sep-16 23:30N 32°38' W 117°20'3 6.4
2017-Sep-16 23:00N 32°38' W 117°24'3 6.8
2017-Sep-16 22:30N 32°37' W 117°28'3 6.7
2017-Sep-16 22:00N 32°37' W 117°32'3 6.8
2017-Sep-16 21:30N 32°36' W 117°36'3 6.2
2017-Sep-16 21:00N 32°35' W 117°39'3 6.0
2017-Sep-16 20:31N 32°32' W 117°38'1 2.9
2017-Sep-16 20:00N 32°31' W 117°36'2 4.4
2017-Sep-16 19:31N 32°30' W 117°35'3 6.4
2017-Sep-16 19:00N 32°26' W 117°35'2 3.6
2017-Sep-16 18:29N 32°26' W 117°33'2 3.2
2017-Sep-16 18:00N 32°25' W 117°31'1 1.0
2017-Sep-16 17:30N 32°25' W 117°32'0 0.9
2017-Sep-16 17:00N 32°25' W 117°32'0 0.8
2017-Sep-16 16:30N 32°25' W 117°33'0 0.9
2017-Sep-16 16:01N 32°25' W 117°33'2 3.0
2017-Sep-16 15:30N 32°26' W 117°35'1 2.9
2017-Sep-16 14:59N 32°24' W 117°35'2 4.8
2017-Sep-16 14:30N 32°25' W 117°38'2 4.7
2017-Sep-16 14:00N 32°25' W 117°35'0 0.4
2017-Sep-16 13:30N 32°25' W 117°35'0 0.3
2017-Sep-16 13:00N 32°25' W 117°35'0 0.3
2017-Sep-16 12:30N 32°25' W 117°35'0 0.2
2017-Sep-16 12:00N 32°25' W 117°35'0 0.3
2017-Sep-16 11:30N 32°25' W 117°34'0 0.2
2017-Sep-16 11:00N 32°25' W 117°34'0 0.2
2017-Sep-16 10:30N 32°25' W 117°34'0 0.3
2017-Sep-16 10:00N 32°25' W 117°34'0 0.5
2017-Sep-16 09:30N 32°25' W 117°34'0 0.3
2017-Sep-16 09:01N 32°25' W 117°34'0 0.2
2017-Sep-16 08:30N 32°26' W 117°34'0 0.3
2017-Sep-16 08:00N 32°26' W 117°34'0 0.3
2017-Sep-16 07:30N 32°26' W 117°34'0 0.3
2017-Sep-16 07:00N 32°26' W 117°34'0 0.3
2017-Sep-16 06:30N 32°26' W 117°34'0 0.3
2017-Sep-16 06:00N 32°26' W 117°34'0 0.3
2017-Sep-16 05:30N 32°26' W 117°34'0 0.4
2017-Sep-16 05:00N 32°26' W 117°34'0 0.5
2017-Sep-16 04:26N 32°26' W 117°35'0 0.5
2017-Sep-16 04:00N 32°26' W 117°35'0 0.5
2017-Sep-16 03:30N 32°26' W 117°35'0 0.4
2017-Sep-16 03:00N 32°26' W 117°35'0 0.7
2017-Sep-16 02:30N 32°26' W 117°36'2 3.5
2017-Sep-16 02:00N 32°25' W 117°34'0 0.9
2017-Sep-16 01:30N 32°25' W 117°34'0 0.8
2017-Sep-16 01:00N 32°25' W 117°35'3 6.7
2017-Sep-16 00:30N 32°27' W 117°38'1 2.9
2017-Sep-16 00:00N 32°27' W 117°36'3 6.4
2017-Sep-15 23:30N 32°24' W 117°35'6 1.1
2017-Sep-15 17:47N 32°18' W 117°33'2 5.9
2017-Sep-15 17:26N 32°18' W 117°36'3 5.1
2017-Sep-15 16:53N 32°16' W 117°38'3 6.5
2017-Sep-15 16:30N 32°18' W 117°40'3 6.7
2017-Sep-15 16:00N 32°21' W 117°41'4 7.1
2017-Sep-15 15:30N 32°24' W 117°44'2 4.6
2017-Sep-15 15:00N 32°26' W 117°43'3 5.6
2017-Sep-15 14:30N 32°29' W 117°42'3 5.4
2017-Sep-15 14:01N 32°27' W 117°40'3 6.1
2017-Sep-15 13:31N 32°25' W 117°37'0 0.6
2017-Sep-15 13:00N 32°25' W 117°37'0 0.5
2017-Sep-15 12:30N 32°25' W 117°37'0 0.4
2017-Sep-15 12:00N 32°25' W 117°38'0 0.3
2017-Sep-15 11:30N 32°25' W 117°38'0 0.3
2017-Sep-15 11:01N 32°25' W 117°38'0 0.2
2017-Sep-15 10:30N 32°25' W 117°38'0 0.2
2017-Sep-15 10:00N 32°25' W 117°38'0 0.3
2017-Sep-15 09:30N 32°25' W 117°38'0 0.2
2017-Sep-15 09:00N 32°25' W 117°38'0 0.4
2017-Sep-15 08:30N 32°25' W 117°39'1 2.7
2017-Sep-15 08:00N 32°26' W 117°38'4 7.1
2017-Sep-15 07:30N 32°28' W 117°34'3 7.0
2017-Sep-15 07:00N 32°30' W 117°31'4 7.3
2017-Sep-15 06:30N 32°32' W 117°27'3 6.7
2017-Sep-15 06:00N 32°34' W 117°24'4 6.1
2017-Sep-15 05:21N 32°35' W 117°20'4 7.8
2017-Sep-15 04:53N 32°37' W 117°16'3 7.4
2017-Sep-15 04:30N 32°39' W 117°14'3 5.5
2017-Sep-15 03:59N 32°42' W 117°14'0 0.2
2017-Sep-15 03:30N 32°42' W 117°14'2 3.3
2017-Sep-15 03:00N 32°43' W 117°14'0 0.0
2017-Sep-15 02:30N 32°43' W 117°14'0 0.0
2017-Sep-15 02:00N 32°43' W 117°14'0 0.0
2017-Sep-15 01:30N 32°43' W 117°14'0 0.0
2017-Sep-15 01:00N 32°43' W 117°14'0 0.0
2017-Sep-15 00:30N 32°43' W 117°14'0 0.0
2017-Sep-15 00:00N 32°43' W 117°14'0 0.0
2017-Sep-14 23:31N 32°43' W 117°14'0 0.0
2017-Sep-14 23:00N 32°43' W 117°14'0 0.0
2017-Sep-14 22:30N 32°43' W 117°14'0 0.0
2017-Sep-14 22:00N 32°43' W 117°14'0 0.0
2017-Sep-14 21:30N 32°43' W 117°14'0 0.0
2017-Sep-14 21:00N 32°43' W 117°14'0 0.0
2017-Sep-14 20:31N 32°43' W 117°14'0 0.0
2017-Sep-14 20:00N 32°43' W 117°14'0 0.3
2017-Sep-14 19:30N 32°43' W 117°14'0 0.3
2017-Sep-14 19:00N 32°43' W 117°14'0 0.0
2017-Sep-14 18:30N 32°43' W 117°14'0 0.0
2017-Sep-14 18:00N 32°43' W 117°14'0 0.0
2017-Sep-14 17:30N 32°43' W 117°14'0 0.0
2017-Sep-14 17:00N 32°43' W 117°14'0 0.0
2017-Sep-14 16:30N 32°43' W 117°14'0 0.0
2017-Sep-14 16:00N 32°43' W 117°14'0 0.0
2017-Sep-14 15:30N 32°43' W 117°14'0 0.0
2017-Sep-14 15:00N 32°43' W 117°14'0 0.0
2017-Sep-14 14:30N 32°43' W 117°14'0 0.0
2017-Sep-14 14:00N 32°43' W 117°14'0 0.0
2017-Sep-14 13:30N 32°43' W 117°14'0 0.0
2017-Sep-14 13:00N 32°43' W 117°14'0 0.0
2017-Sep-14 12:30N 32°43' W 117°14'0 0.0
2017-Sep-14 12:00N 32°43' W 117°14'0 0.0
2017-Sep-14 11:30N 32°43' W 117°14'0 0.0
2017-Sep-14 11:01N 32°43' W 117°14'0 0.0
2017-Sep-14 10:30N 32°43' W 117°14'0 0.0
2017-Sep-14 10:00N 32°43' W 117°14'0 0.0
2017-Sep-14 09:30N 32°43' W 117°14'0 0.0
2017-Sep-14 09:00N 32°43' W 117°14'0 0.0
2017-Sep-14 08:30N 32°43' W 117°14'0 0.0
2017-Sep-14 08:00N 32°43' W 117°14'0 0.0
2017-Sep-14 07:30N 32°43' W 117°14'0 0.0
2017-Sep-14 07:00N 32°43' W 117°14'0 0.0
2017-Sep-14 06:30N 32°43' W 117°14'0 0.0
2017-Sep-14 06:00N 32°43' W 117°14'0 0.0
2017-Sep-14 05:30N 32°43' W 117°14'0 0.0
2017-Sep-14 05:00N 32°43' W 117°14'0 0.0
2017-Sep-14 04:30N 32°43' W 117°14'0 0.0
2017-Sep-14 04:00N 32°43' W 117°14'0 0.0
2017-Sep-14 03:30N 32°43' W 117°14'0 0.0
2017-Sep-14 03:01N 32°43' W 117°14'0 0.0
2017-Sep-14 02:31N 32°43' W 117°14'0 0.0
2017-Sep-14 02:00N 32°43' W 117°14'0 0.0
2017-Sep-14 01:30N 32°43' W 117°14'0 0.0
2017-Sep-14 01:00N 32°43' W 117°14'0 0.0
2017-Sep-14 00:30N 32°43' W 117°14'0 0.0
2017-Sep-14 00:00N 32°43' W 117°14'0 0.0
2017-Sep-13 23:30N 32°43' W 117°14'0 0.0
2017-Sep-13 23:00N 32°43' W 117°14'0 0.0
2017-Sep-13 22:30N 32°43' W 117°14'0 0.0
2017-Sep-13 22:00N 32°43' W 117°14'0 0.0
2017-Sep-13 21:30N 32°43' W 117°14'0 0.0
2017-Sep-13 21:00N 32°43' W 117°14'0 0.0
2017-Sep-13 20:30N 32°43' W 117°14'0 0.0
2017-Sep-13 20:00N 32°43' W 117°14'0 0.0
2017-Sep-13 19:30N 32°43' W 117°14'0 0.0
2017-Sep-13 19:00N 32°43' W 117°14'0 0.0
2017-Sep-13 18:30N 32°43' W 117°14'0 0.0
2017-Sep-13 18:00N 32°43' W 117°14'0 0.0
2017-Sep-13 17:30N 32°43' W 117°14'0 0.0
2017-Sep-13 17:00N 32°43' W 117°14'0 0.0
2017-Sep-13 16:30N 32°43' W 117°14'0 0.0
2017-Sep-13 16:00N 32°43' W 117°14'0 0.0
2017-Sep-13 15:30N 32°43' W 117°14'0 0.0
2017-Sep-13 15:01N 32°43' W 117°14'0 0.0
2017-Sep-13 14:30N 32°43' W 117°14'0 0.0
2017-Sep-13 14:00N 32°43' W 117°14'0 0.0
2017-Sep-13 13:30N 32°43' W 117°14'0 0.0
2017-Sep-13 13:00N 32°43' W 117°14'0 0.0
2017-Sep-13 12:30N 32°43' W 117°14'0 0.0
2017-Sep-13 12:00N 32°43' W 117°14'0 0.0
2017-Sep-13 11:30N 32°43' W 117°14'0 0.0
2017-Sep-13 11:00N 32°43' W 117°14'0 0.0
2017-Sep-13 10:30N 32°43' W 117°14'0 0.0
2017-Sep-13 10:00N 32°43' W 117°14'0 0.0
2017-Sep-13 09:30N 32°43' W 117°14'0 0.0
2017-Sep-13 09:00N 32°43' W 117°14'0 0.0
2017-Sep-13 08:31N 32°43' W 117°14'0 0.0
2017-Sep-13 08:00N 32°43' W 117°14'0 0.0
2017-Sep-13 07:30N 32°43' W 117°14'0 0.0
2017-Sep-13 07:00N 32°43' W 117°14'0 0.0
2017-Sep-13 06:30N 32°43' W 117°14'0 0.0
2017-Sep-13 06:00N 32°43' W 117°14'0 0.0
2017-Sep-13 05:30N 32°43' W 117°14'0 0.0
2017-Sep-13 05:00N 32°43' W 117°14'0 0.0
2017-Sep-13 04:30N 32°43' W 117°14'0 0.0
2017-Sep-13 04:00N 32°43' W 117°14'0 0.0
2017-Sep-13 03:30N 32°43' W 117°14'0 0.0
2017-Sep-13 03:00N 32°43' W 117°14'0 0.0
2017-Sep-13 02:30N 32°43' W 117°14'0 0.0
2017-Sep-13 02:00N 32°43' W 117°14'0 0.0
2017-Sep-13 01:30N 32°43' W 117°14'0 0.0
2017-Sep-13 01:00N 32°43' W 117°14'0 0.0
2017-Sep-13 00:30N 32°43' W 117°14'0 0.0
2017-Sep-13 00:00N 32°43' W 117°14'0 0.0
2017-Sep-12 23:30N 32°43' W 117°14'0 0.0
2017-Sep-12 23:00N 32°43' W 117°14'0 0.0
2017-Sep-12 22:30N 32°43' W 117°14'0 0.0
2017-Sep-12 21:58N 32°43' W 117°14'0 0.0
2017-Sep-12 21:30N 32°43' W 117°14'0 0.0
2017-Sep-12 21:00N 32°43' W 117°14'0 0.0
2017-Sep-12 20:30N 32°43' W 117°14'0 0.0
2017-Sep-12 20:00N 32°43' W 117°14'0 0.0
2017-Sep-12 19:30N 32°43' W 117°14'0 0.0
2017-Sep-12 19:00N 32°43' W 117°14'0 0.0
2017-Sep-12 18:30N 32°43' W 117°14'0 0.0
2017-Sep-12 18:00N 32°43' W 117°14'0 0.0
2017-Sep-12 17:30N 32°43' W 117°14'0 0.0
2017-Sep-12 17:00N 32°43' W 117°14'0 0.0
2017-Sep-12 16:30N 32°43' W 117°14'0 0.0
2017-Sep-12 16:01N 32°43' W 117°14'0 0.0
2017-Sep-12 15:31N 32°43' W 117°14'0 0.0
2017-Sep-12 15:00N 32°43' W 117°14'0 0.0
2017-Sep-12 14:30N 32°43' W 117°14'0 0.0
2017-Sep-12 14:00N 32°43' W 117°14'0 0.0
2017-Sep-12 13:30N 32°43' W 117°14'0 0.0
2017-Sep-12 13:00N 32°43' W 117°14'0 0.0
2017-Sep-12 12:30N 32°43' W 117°14'0 0.0
2017-Sep-12 12:00N 32°43' W 117°14'0 0.0
2017-Sep-12 11:30N 32°43' W 117°14'0 0.0
2017-Sep-12 11:00N 32°43' W 117°14'0 0.0
2017-Sep-12 10:30N 32°43' W 117°14'0 0.0
2017-Sep-12 10:00N 32°43' W 117°14'0 0.0
2017-Sep-12 09:30N 32°43' W 117°14'0 0.0
2017-Sep-12 09:00N 32°43' W 117°14'0 0.0
2017-Sep-12 08:30N 32°43' W 117°14'0 0.0
2017-Sep-12 08:00N 32°43' W 117°14'0 0.0
2017-Sep-12 07:30N 32°43' W 117°14'0 0.0
2017-Sep-12 07:00N 32°43' W 117°14'0 0.0
2017-Sep-12 06:30N 32°43' W 117°14'0 0.0
2017-Sep-12 06:00N 32°43' W 117°14'0 0.0
2017-Sep-12 05:30N 32°43' W 117°14'0 0.0
2017-Sep-12 05:00N 32°43' W 117°14'0 0.0
2017-Sep-12 04:30N 32°43' W 117°14'0 0.0
2017-Sep-12 04:00N 32°43' W 117°14'0 0.0
2017-Sep-12 03:30N 32°43' W 117°14'0 0.0
2017-Sep-12 03:00N 32°43' W 117°14'0 0.5
2017-Sep-12 02:28N 32°43' W 117°13'3 6.8
2017-Sep-12 02:00N 32°40' W 117°14'  
Track history (hours):
 
Tides and Currents Weather Stations Pressure Air Temp Water Temp Dewpoint Dewpoint Depression Visibility Wind Speed Wind Dir Waves Ship Positions

Legend

Owner: Sea Adventure 80 Sportfishing, Encinitas, CA. More information available from US FCC via Universal Licensing System and Coast Guard Vessel Documentation Center.

Last reported at 2017-Sep-22 02:00 UTC. Time now 2017-Sep-22 20:46 UTC.
Position N 32°43' W 117°14'.

Type: Passenger vessel. MMSI: 367600830.

Date/timePositionNaut miles runAvg speedWind from/ knotsBaromVisibWave heightAir tempDewpointWater temp
2017-Sep-22 02:00N 32°43' W 117°14'0 0.0
2017-Sep-22 01:30N 32°43' W 117°14'0 0.0
2017-Sep-22 01:01N 32°43' W 117°14'0 0.0
2017-Sep-22 00:31N 32°43' W 117°14'0 0.0
2017-Sep-22 00:00N 32°43' W 117°14'0 0.0
2017-Sep-21 23:30N 32°43' W 117°14'0 0.0
2017-Sep-21 23:01N 32°43' W 117°14'0 0.0
2017-Sep-21 22:30N 32°43' W 117°14'0 0.0
2017-Sep-21 22:00N 32°43' W 117°14'0 0.0
2017-Sep-21 21:30N 32°43' W 117°14'0 0.0
2017-Sep-21 21:00N 32°43' W 117°14'0 0.0
2017-Sep-21 20:31N 32°43' W 117°14'0 0.0
2017-Sep-21 20:00N 32°43' W 117°14'0 0.0
2017-Sep-21 19:31N 32°43' W 117°14'0 0.0
2017-Sep-21 19:01N 32°43' W 117°14'0 0.0
2017-Sep-21 18:30N 32°43' W 117°14'0 0.0
2017-Sep-21 18:00N 32°43' W 117°14'0 0.0
2017-Sep-21 17:31N 32°43' W 117°14'0 0.0
2017-Sep-21 17:00N 32°43' W 117°14'0 0.0
2017-Sep-21 16:30N 32°43' W 117°14'0 0.0
2017-Sep-21 16:01N 32°43' W 117°14'0 0.0
2017-Sep-21 15:30N 32°43' W 117°14'0 0.0
2017-Sep-21 15:00N 32°43' W 117°14'0 0.0
2017-Sep-21 14:31N 32°43' W 117°14'0 0.0
2017-Sep-21 14:00N 32°43' W 117°14'0 0.0
2017-Sep-21 13:30N 32°43' W 117°14'2 3.4
2017-Sep-21 13:00N 32°42' W 117°14'3 5.3
2017-Sep-21 12:30N 32°39' W 117°15'3 6.4
2017-Sep-21 12:00N 32°40' W 117°19'3 6.6
2017-Sep-21 11:30N 32°40' W 117°23'3 6.6
2017-Sep-21 11:01N 32°41' W 117°27'3 6.2
2017-Sep-21 10:31N 32°41' W 117°30'3 6.4
2017-Sep-21 10:00N 32°41' W 117°34'3 6.4
2017-Sep-21 09:30N 32°41' W 117°38'3 6.8
2017-Sep-21 09:01N 32°41' W 117°42'3 6.9
2017-Sep-21 08:30N 32°41' W 117°46'3 6.9
2017-Sep-21 08:00N 32°41' W 117°50'3 6.6
2017-Sep-21 07:30N 32°41' W 117°54'3 6.5
2017-Sep-21 07:00N 32°41' W 117°58'3 6.5
2017-Sep-21 06:30N 32°41' W 118°02'3 6.5
2017-Sep-21 05:58N 32°42' W 118°06'3 6.4
2017-Sep-21 05:30N 32°42' W 118°09'3 6.5
2017-Sep-21 05:01N 32°43' W 118°13'8 6.9
2017-Sep-21 03:52N 32°43' W 118°23'2 6.5
2017-Sep-21 03:30N 32°45' W 118°25'6 6.9
2017-Sep-21 02:39N 32°48' W 118°31'7 0.6
2017-Sep-20 15:14N 32°52' W 118°24'1 2.2
2017-Sep-20 14:50N 32°53' W 118°25'17 1.8
2017-Sep-20 05:25N 32°42' W 118°09'4 7.5
2017-Sep-20 04:52N 32°39' W 118°06'9 7.5
2017-Sep-20 03:44N 32°33' W 117°58'3 7.4
2017-Sep-20 03:23N 32°32' W 117°56'3 7.4
2017-Sep-20 03:00N 32°30' W 117°53'5 7.4
2017-Sep-20 02:23N 32°27' W 117°49'3 7.4
2017-Sep-20 02:00N 32°25' W 117°46'4 7.1
2017-Sep-20 01:25N 32°22' W 117°43'3 6.6
2017-Sep-20 01:01N 32°20' W 117°41'26 1.3
2017-Sep-19 04:56N 32°36' W 117°16'4 8.9
2017-Sep-19 04:31N 32°39' W 117°14'3 5.6
2017-Sep-19 04:00N 32°42' W 117°14'0 0.0
2017-Sep-19 03:31N 32°42' W 117°14'2 3.4
2017-Sep-19 02:59N 32°43' W 117°14'0 0.1
2017-Sep-19 02:31N 32°43' W 117°14'0 0.0
2017-Sep-19 02:00N 32°43' W 117°14'0 0.0
2017-Sep-19 01:31N 32°43' W 117°14'0 0.0
2017-Sep-19 01:00N 32°43' W 117°14'0 0.0
2017-Sep-19 00:30N 32°43' W 117°14'0 0.0
2017-Sep-19 00:00N 32°43' W 117°14'0 0.0
2017-Sep-18 23:31N 32°43' W 117°14'0 0.0
2017-Sep-18 23:00N 32°43' W 117°14'0 0.0
2017-Sep-18 22:31N 32°43' W 117°14'0 0.0
2017-Sep-18 22:00N 32°43' W 117°14'0 0.0
2017-Sep-18 21:31N 32°43' W 117°14'0 0.0
2017-Sep-18 21:00N 32°43' W 117°14'0 0.0
2017-Sep-18 20:30N 32°43' W 117°14'0 0.0
2017-Sep-18 20:00N 32°43' W 117°14'0 0.0
2017-Sep-18 19:30N 32°43' W 117°14'0 0.0
2017-Sep-18 19:00N 32°43' W 117°14'0 0.0
2017-Sep-18 18:31N 32°43' W 117°14'0 0.0
2017-Sep-18 18:00N 32°43' W 117°14'0 0.0
2017-Sep-18 17:30N 32°43' W 117°14'0 0.0
2017-Sep-18 17:01N 32°43' W 117°14'0 0.0
2017-Sep-18 16:31N 32°43' W 117°14'0 0.0
2017-Sep-18 16:00N 32°43' W 117°14'0 0.0
2017-Sep-18 15:30N 32°43' W 117°14'0 0.0
2017-Sep-18 15:00N 32°43' W 117°14'0 0.2
2017-Sep-18 14:29N 32°43' W 117°14'0 0.3
2017-Sep-18 14:00N 32°43' W 117°14'0 0.0
2017-Sep-18 13:31N 32°43' W 117°14'0 0.5
2017-Sep-18 13:00N 32°43' W 117°13'0 0.8
2017-Sep-18 12:30N 32°43' W 117°13'0 0.0
2017-Sep-18 12:00N 32°43' W 117°13'0 0.0
2017-Sep-18 11:27N 32°43' W 117°13'0 0.0
2017-Sep-18 11:00N 32°43' W 117°13'2 4.7
2017-Sep-18 10:30N 32°41' W 117°14'4 7.1
2017-Sep-18 10:01N 32°38' W 117°14'4 7.2
2017-Sep-18 09:30N 32°34' W 117°15'3 6.8
2017-Sep-18 09:01N 32°31' W 117°17'6 6.6
2017-Sep-18 08:06N 32°25' W 117°19'10 1.0
2017-Sep-17 22:04N 32°23' W 117°31'2 8.9
2017-Sep-17 21:54N 32°24' W 117°31'3 8.9
2017-Sep-17 21:30N 32°28' W 117°32'3 5.2
2017-Sep-17 21:00N 32°30' W 117°34'1 1.2
2017-Sep-17 20:30N 32°29' W 117°34'2 4.1
2017-Sep-17 20:00N 32°27' W 117°33'4 7.4
2017-Sep-17 19:30N 32°25' W 117°30'4 7.4
2017-Sep-17 18:59N 32°21' W 117°30'1 2.7
2017-Sep-17 18:29N 32°21' W 117°31'2 4.8
2017-Sep-17 17:58N 32°23' W 117°30'3 7.1
2017-Sep-17 17:30N 32°26' W 117°30'4 7.8
2017-Sep-17 17:00N 32°30' W 117°30'3 5.1
2017-Sep-17 16:30N 32°31' W 117°32'1 1.1
2017-Sep-17 16:00N 32°32' W 117°32'0 0.5
2017-Sep-17 15:30N 32°32' W 117°33'0 0.6
2017-Sep-17 15:00N 32°32' W 117°33'2 3.3
2017-Sep-17 14:30N 32°33' W 117°33'3 5.7
2017-Sep-17 14:01N 32°36' W 117°34'0 0.3
2017-Sep-17 13:30N 32°36' W 117°34'1 1.5
2017-Sep-17 13:00N 32°37' W 117°33'0 0.7
2017-Sep-17 12:30N 32°37' W 117°34'0 0.8
2017-Sep-17 12:00N 32°37' W 117°34'0 0.8
2017-Sep-17 11:30N 32°36' W 117°35'0 0.8
2017-Sep-17 11:00N 32°36' W 117°35'0 0.8
2017-Sep-17 10:30N 32°36' W 117°36'0 0.7
2017-Sep-17 10:00N 32°36' W 117°36'0 0.7
2017-Sep-17 09:30N 32°36' W 117°36'0 0.7
2017-Sep-17 09:00N 32°36' W 117°37'0 0.6
2017-Sep-17 08:31N 32°36' W 117°37'1 1.6
2017-Sep-17 08:01N 32°36' W 117°36'4 7.5
2017-Sep-17 07:30N 32°37' W 117°32'4 7.7
2017-Sep-17 07:00N 32°38' W 117°28'4 7.9
2017-Sep-17 06:30N 32°38' W 117°23'4 7.1
2017-Sep-17 06:00N 32°38' W 117°19'4 7.0
2017-Sep-17 05:30N 32°38' W 117°15'3 6.7
2017-Sep-17 05:00N 32°42' W 117°14'0 0.0
2017-Sep-17 04:30N 32°42' W 117°14'2 3.6
2017-Sep-17 04:00N 32°43' W 117°13'0 0.6
2017-Sep-17 03:30N 32°43' W 117°14'0 0.0
2017-Sep-17 03:00N 32°43' W 117°14'0 0.0
2017-Sep-17 02:30N 32°43' W 117°14'0 0.2
2017-Sep-17 01:59N 32°43' W 117°14'0 0.3
2017-Sep-17 01:30N 32°43' W 117°14'0 0.0
2017-Sep-17 01:00N 32°43' W 117°14'3 5.2
2017-Sep-17 00:30N 32°41' W 117°14'3 6.8
2017-Sep-17 00:00N 32°38' W 117°16'3 6.5
2017-Sep-16 23:30N 32°38' W 117°20'3 6.4
2017-Sep-16 23:00N 32°38' W 117°24'3 6.8
2017-Sep-16 22:30N 32°37' W 117°28'3 6.7
2017-Sep-16 22:00N 32°37' W 117°32'3 6.8
2017-Sep-16 21:30N 32°36' W 117°36'3 6.2
2017-Sep-16 21:00N 32°35' W 117°39'3 6.0
2017-Sep-16 20:31N 32°32' W 117°38'1 2.9
2017-Sep-16 20:00N 32°31' W 117°36'2 4.4
2017-Sep-16 19:31N 32°30' W 117°35'3 6.4
2017-Sep-16 19:00N 32°26' W 117°35'2 3.6
2017-Sep-16 18:29N 32°26' W 117°33'2 3.2
2017-Sep-16 18:00N 32°25' W 117°31'1 1.0
2017-Sep-16 17:30N 32°25' W 117°32'0 0.9
2017-Sep-16 17:00N 32°25' W 117°32'0 0.8
2017-Sep-16 16:30N 32°25' W 117°33'0 0.9
2017-Sep-16 16:01N 32°25' W 117°33'2 3.0
2017-Sep-16 15:30N 32°26' W 117°35'1 2.9
2017-Sep-16 14:59N 32°24' W 117°35'2 4.8
2017-Sep-16 14:30N 32°25' W 117°38'2 4.7
2017-Sep-16 14:00N 32°25' W 117°35'0 0.4
2017-Sep-16 13:30N 32°25' W 117°35'0 0.3
2017-Sep-16 13:00N 32°25' W 117°35'0 0.3
2017-Sep-16 12:30N 32°25' W 117°35'0 0.2
2017-Sep-16 12:00N 32°25' W 117°35'0 0.3
2017-Sep-16 11:30N 32°25' W 117°34'0 0.2
2017-Sep-16 11:00N 32°25' W 117°34'0 0.2
2017-Sep-16 10:30N 32°25' W 117°34'0 0.3
2017-Sep-16 10:00N 32°25' W 117°34'0 0.5
2017-Sep-16 09:30N 32°25' W 117°34'0 0.3
2017-Sep-16 09:01N 32°25' W 117°34'0 0.2
2017-Sep-16 08:30N 32°26' W 117°34'0 0.3
2017-Sep-16 08:00N 32°26' W 117°34'0 0.3
2017-Sep-16 07:30N 32°26' W 117°34'0 0.3
2017-Sep-16 07:00N 32°26' W 117°34'0 0.3
2017-Sep-16 06:30N 32°26' W 117°34'0 0.3
2017-Sep-16 06:00N 32°26' W 117°34'0 0.3
2017-Sep-16 05:30N 32°26' W 117°34'0 0.4
2017-Sep-16 05:00N 32°26' W 117°34'0 0.5
2017-Sep-16 04:26N 32°26' W 117°35'0 0.5
2017-Sep-16 04:00N 32°26' W 117°35'0 0.5
2017-Sep-16 03:30N 32°26' W 117°35'0 0.4
2017-Sep-16 03:00N 32°26' W 117°35'0 0.7
2017-Sep-16 02:30N 32°26' W 117°36'2 3.5
2017-Sep-16 02:00N 32°25' W 117°34'0 0.9
2017-Sep-16 01:30N 32°25' W 117°34'0 0.8
2017-Sep-16 01:00N 32°25' W 117°35'3 6.7
2017-Sep-16 00:30N 32°27' W 117°38'1 2.9
2017-Sep-16 00:00N 32°27' W 117°36'3 6.4
2017-Sep-15 23:30N 32°24' W 117°35'6 1.1
2017-Sep-15 17:47N 32°18' W 117°33'2 5.9
2017-Sep-15 17:26N 32°18' W 117°36'3 5.1
2017-Sep-15 16:53N 32°16' W 117°38'3 6.5
2017-Sep-15 16:30N 32°18' W 117°40'3 6.7
2017-Sep-15 16:00N 32°21' W 117°41'4 7.1
2017-Sep-15 15:30N 32°24' W 117°44'2 4.6
2017-Sep-15 15:00N 32°26' W 117°43'3 5.6
2017-Sep-15 14:30N 32°29' W 117°42'3 5.4
2017-Sep-15 14:01N 32°27' W 117°40'3 6.1
2017-Sep-15 13:31N 32°25' W 117°37'0 0.6
2017-Sep-15 13:00N 32°25' W 117°37'0 0.5
2017-Sep-15 12:30N 32°25' W 117°37'0 0.4
2017-Sep-15 12:00N 32°25' W 117°38'0 0.3
2017-Sep-15 11:30N 32°25' W 117°38'0 0.3
2017-Sep-15 11:01N 32°25' W 117°38'0 0.2
2017-Sep-15 10:30N 32°25' W 117°38'0 0.2
2017-Sep-15 10:00N 32°25' W 117°38'0 0.3
2017-Sep-15 09:30N 32°25' W 117°38'0 0.2
2017-Sep-15 09:00N 32°25' W 117°38'0 0.4
2017-Sep-15 08:30N 32°25' W 117°39'1 2.7
2017-Sep-15 08:00N 32°26' W 117°38'4 7.1
2017-Sep-15 07:30N 32°28' W 117°34'3 7.0
2017-Sep-15 07:00N 32°30' W 117°31'4 7.3
2017-Sep-15 06:30N 32°32' W 117°27'3 6.7
2017-Sep-15 06:00N 32°34' W 117°24'4 6.1
2017-Sep-15 05:21N 32°35' W 117°20'4 7.8
2017-Sep-15 04:53N 32°37' W 117°16'3 7.4
2017-Sep-15 04:30N 32°39' W 117°14'3 5.5
2017-Sep-15 03:59N 32°42' W 117°14'0 0.2
2017-Sep-15 03:30N 32°42' W 117°14'2 3.3
2017-Sep-15 03:00N 32°43' W 117°14'0 0.0
2017-Sep-15 02:30N 32°43' W 117°14'0 0.0
2017-Sep-15 02:00N 32°43' W 117°14'0 0.0
2017-Sep-15 01:30N 32°43' W 117°14'0 0.0
2017-Sep-15 01:00N 32°43' W 117°14'0 0.0
2017-Sep-15 00:30N 32°43' W 117°14'0 0.0
2017-Sep-15 00:00N 32°43' W 117°14'0 0.0
2017-Sep-14 23:31N 32°43' W 117°14'0 0.0
2017-Sep-14 23:00N 32°43' W 117°14'0 0.0
2017-Sep-14 22:30N 32°43' W 117°14'0 0.0
2017-Sep-14 22:00N 32°43' W 117°14'0 0.0
2017-Sep-14 21:30N 32°43' W 117°14'0 0.0
2017-Sep-14 21:00N 32°43' W 117°14'0 0.0
2017-Sep-14 20:31N 32°43' W 117°14'0 0.0
2017-Sep-14 20:00N 32°43' W 117°14'0 0.3
2017-Sep-14 19:30N 32°43' W 117°14'0 0.3
2017-Sep-14 19:00N 32°43' W 117°14'0 0.0
2017-Sep-14 18:30N 32°43' W 117°14'0 0.0
2017-Sep-14 18:00N 32°43' W 117°14'0 0.0
2017-Sep-14 17:30N 32°43' W 117°14'0 0.0
2017-Sep-14 17:00N 32°43' W 117°14'0 0.0
2017-Sep-14 16:30N 32°43' W 117°14'0 0.0
2017-Sep-14 16:00N 32°43' W 117°14'0 0.0
2017-Sep-14 15:30N 32°43' W 117°14'0 0.0
2017-Sep-14 15:00N 32°43' W 117°14'0 0.0
2017-Sep-14 14:30N 32°43' W 117°14'0 0.0
2017-Sep-14 14:00N 32°43' W 117°14'0 0.0
2017-Sep-14 13:30N 32°43' W 117°14'0 0.0
2017-Sep-14 13:00N 32°43' W 117°14'0 0.0
2017-Sep-14 12:30N 32°43' W 117°14'0 0.0
2017-Sep-14 12:00N 32°43' W 117°14'0 0.0
2017-Sep-14 11:30N 32°43' W 117°14'0 0.0
2017-Sep-14 11:01N 32°43' W 117°14'0 0.0
2017-Sep-14 10:30N 32°43' W 117°14'0 0.0
2017-Sep-14 10:00N 32°43' W 117°14'0 0.0
2017-Sep-14 09:30N 32°43' W 117°14'0 0.0
2017-Sep-14 09:00N 32°43' W 117°14'0 0.0
2017-Sep-14 08:30N 32°43' W 117°14'0 0.0
2017-Sep-14 08:00N 32°43' W 117°14'0 0.0
2017-Sep-14 07:30N 32°43' W 117°14'0 0.0
2017-Sep-14 07:00N 32°43' W 117°14'0 0.0
2017-Sep-14 06:30N 32°43' W 117°14'0 0.0
2017-Sep-14 06:00N 32°43' W 117°14'0 0.0
2017-Sep-14 05:30N 32°43' W 117°14'0 0.0
2017-Sep-14 05:00N 32°43' W 117°14'0 0.0
2017-Sep-14 04:30N 32°43' W 117°14'0 0.0
2017-Sep-14 04:00N 32°43' W 117°14'0 0.0
2017-Sep-14 03:30N 32°43' W 117°14'0 0.0
2017-Sep-14 03:01N 32°43' W 117°14'0 0.0
2017-Sep-14 02:31N 32°43' W 117°14'0 0.0
2017-Sep-14 02:00N 32°43' W 117°14'0 0.0
2017-Sep-14 01:30N 32°43' W 117°14'0 0.0
2017-Sep-14 01:00N 32°43' W 117°14'0 0.0
2017-Sep-14 00:30N 32°43' W 117°14'0 0.0
2017-Sep-14 00:00N 32°43' W 117°14'0 0.0
2017-Sep-13 23:30N 32°43' W 117°14'0 0.0
2017-Sep-13 23:00N 32°43' W 117°14'0 0.0
2017-Sep-13 22:30N 32°43' W 117°14'0 0.0
2017-Sep-13 22:00N 32°43' W 117°14'0 0.0
2017-Sep-13 21:30N 32°43' W 117°14'0 0.0
2017-Sep-13 21:00N 32°43' W 117°14'0 0.0
2017-Sep-13 20:30N 32°43' W 117°14'0 0.0
2017-Sep-13 20:00N 32°43' W 117°14'0 0.0
2017-Sep-13 19:30N 32°43' W 117°14'0 0.0
2017-Sep-13 19:00N 32°43' W 117°14'0 0.0
2017-Sep-13 18:30N 32°43' W 117°14'0 0.0
2017-Sep-13 18:00N 32°43' W 117°14'0 0.0
2017-Sep-13 17:30N 32°43' W 117°14'0 0.0
2017-Sep-13 17:00N 32°43' W 117°14'0 0.0
2017-Sep-13 16:30N 32°43' W 117°14'0 0.0
2017-Sep-13 16:00N 32°43' W 117°14'0 0.0
2017-Sep-13 15:30N 32°43' W 117°14'0 0.0
2017-Sep-13 15:01N 32°43' W 117°14'0 0.0
2017-Sep-13 14:30N 32°43' W 117°14'0 0.0
2017-Sep-13 14:00N 32°43' W 117°14'0 0.0
2017-Sep-13 13:30N 32°43' W 117°14'0 0.0
2017-Sep-13 13:00N 32°43' W 117°14'0 0.0
2017-Sep-13 12:30N 32°43' W 117°14'0 0.0
2017-Sep-13 12:00N 32°43' W 117°14'0 0.0
2017-Sep-13 11:30N 32°43' W 117°14'0 0.0
2017-Sep-13 11:00N 32°43' W 117°14'0 0.0
2017-Sep-13 10:30N 32°43' W 117°14'0 0.0
2017-Sep-13 10:00N 32°43' W 117°14'0 0.0
2017-Sep-13 09:30N 32°43' W 117°14'0 0.0
2017-Sep-13 09:00N 32°43' W 117°14'0 0.0
2017-Sep-13 08:31N 32°43' W 117°14'0 0.0
2017-Sep-13 08:00N 32°43' W 117°14'0 0.0
2017-Sep-13 07:30N 32°43' W 117°14'0 0.0
2017-Sep-13 07:00N 32°43' W 117°14'0 0.0
2017-Sep-13 06:30N 32°43' W 117°14'0 0.0
2017-Sep-13 06:00N 32°43' W 117°14'0 0.0
2017-Sep-13 05:30N 32°43' W 117°14'0 0.0
2017-Sep-13 05:00N 32°43' W 117°14'0 0.0
2017-Sep-13 04:30N 32°43' W 117°14'0 0.0
2017-Sep-13 04:00N 32°43' W 117°14'0 0.0
2017-Sep-13 03:30N 32°43' W 117°14'0 0.0
2017-Sep-13 03:00N 32°43' W 117°14'0 0.0
2017-Sep-13 02:30N 32°43' W 117°14'0 0.0
2017-Sep-13 02:00N 32°43' W 117°14'0 0.0
2017-Sep-13 01:30N 32°43' W 117°14'0 0.0
2017-Sep-13 01:00N 32°43' W 117°14'0 0.0
2017-Sep-13 00:30N 32°43' W 117°14'0 0.0
2017-Sep-13 00:00N 32°43' W 117°14'0 0.0
2017-Sep-12 23:30N 32°43' W 117°14'0 0.0
2017-Sep-12 23:00N 32°43' W 117°14'0 0.0
2017-Sep-12 22:30N 32°43' W 117°14'0 0.0
2017-Sep-12 21:58N 32°43' W 117°14'0 0.0
2017-Sep-12 21:30N 32°43' W 117°14'0 0.0
2017-Sep-12 21:00N 32°43' W 117°14'0 0.0
2017-Sep-12 20:30N 32°43' W 117°14'0 0.0
2017-Sep-12 20:00N 32°43' W 117°14'0 0.0
2017-Sep-12 19:30N 32°43' W 117°14'0 0.0
2017-Sep-12 19:00N 32°43' W 117°14'0 0.0
2017-Sep-12 18:30N 32°43' W 117°14'0 0.0
2017-Sep-12 18:00N 32°43' W 117°14'0 0.0
2017-Sep-12 17:30N 32°43' W 117°14'0 0.0
2017-Sep-12 17:00N 32°43' W 117°14'0 0.0
2017-Sep-12 16:30N 32°43' W 117°14'0 0.0
2017-Sep-12 16:01N 32°43' W 117°14'0 0.0
2017-Sep-12 15:31N 32°43' W 117°14'0 0.0
2017-Sep-12 15:00N 32°43' W 117°14'0 0.0
2017-Sep-12 14:30N 32°43' W 117°14'0 0.0
2017-Sep-12 14:00N 32°43' W 117°14'0 0.0
2017-Sep-12 13:30N 32°43' W 117°14'0 0.0
2017-Sep-12 13:00N 32°43' W 117°14'0 0.0
2017-Sep-12 12:30N 32°43' W 117°14'0 0.0
2017-Sep-12 12:00N 32°43' W 117°14'0 0.0
2017-Sep-12 11:30N 32°43' W 117°14'0 0.0
2017-Sep-12 11:00N 32°43' W 117°14'0 0.0
2017-Sep-12 10:30N 32°43' W 117°14'0 0.0
2017-Sep-12 10:00N 32°43' W 117°14'0 0.0
2017-Sep-12 09:30N 32°43' W 117°14'0 0.0
2017-Sep-12 09:00N 32°43' W 117°14'0 0.0
2017-Sep-12 08:30N 32°43' W 117°14'0 0.0
2017-Sep-12 08:00N 32°43' W 117°14'0 0.0
2017-Sep-12 07:30N 32°43' W 117°14'0 0.0
2017-Sep-12 07:00N 32°43' W 117°14'0 0.0
2017-Sep-12 06:30N 32°43' W 117°14'0 0.0
2017-Sep-12 06:00N 32°43' W 117°14'0 0.0
2017-Sep-12 05:30N 32°43' W 117°14'0 0.0
2017-Sep-12 05:00N 32°43' W 117°14'0 0.0
2017-Sep-12 04:30N 32°43' W 117°14'0 0.0
2017-Sep-12 04:00N 32°43' W 117°14'0 0.0
2017-Sep-12 03:30N 32°43' W 117°14'0 0.0
2017-Sep-12 03:00N 32°43' W 117°14'0 0.5
2017-Sep-12 02:28N 32°43' W 117°13'3 6.8
2017-Sep-12 02:00N 32°40' W 117°14'  

Dump ship's entire track history